Terminal Aerodrome Forecast
Issued by NWS

Home | Current Version | Previous Version | Text Only | Print | Product List | Glossary On
Versions: 1 2 3 4 5 6 7 8 9 10 11 12 13 14 15
000
FTUS42 TJSJ 210500 RRA
TAFJMZ
TAF
TJMZ 210544Z 2106/2206 VRB04KT P6SM VCSH SCT025
     FM211400 25010KT P6SM SCT040
     FM211700 27010G15KT P6SM VCTS BKN030CB BKN040
     FM212200 06005KT P6SM SCT025 SCT040
      AMD NOT SKED TIL 211100=

USA.gov is the U.S. government's official web portal to all federal, state and local government web resources and services.